Terminal Aerodrome Forecast
Issued by NWS Wilmington, OH

Home | Current Version | Previous Version | Text Only | Print | Product List | Glossary On
Versions: 1 2 3 4 5 6 7 8 9 10 11 12 13 14 15 16 17 18 19 20 21 22 23 24
169
FTUS41 KILN 281137
TAFILN
TAF
KILN 281137Z 2812/2912 20008KT 4SM RA BR OVC110
      TEMPO 2812/2814 2SM -TSRA BR OVC025CB
     FM281400 22004KT P6SM -RA VCTS BKN035CB OVC070
     FM281500 VRB04KT 4SM -SHRA BR VCTS BKN035CB OVC070
      TEMPO 2815/2817 2SM -TSRA BR OVC025CB
     FM281800 20005KT P6SM VCTS BKN040CB BKN150
     FM290200 VRB04KT P6SM BKN080
     FM290800 VRB02KT 3SM BR BKN150=

USA.gov is the U.S. government's official web portal to all federal, state and local government web resources and services.